createdAt,value
2022-12-25T00:02:21.449Z,98.64
2022-12-25T00:06:04.214Z,99.09
2022-12-25T00:09:26.911Z,99.25
2022-12-25T00:13:27.076Z,99.03
2022-12-25T00:16:49.970Z,98.76
2022-12-25T00:20:27.394Z,98.85
2022-12-25T00:24:23.982Z,99.12
2022-12-25T00:27:46.279Z,98.86
2022-12-25T00:31:26.363Z,98.87
2022-12-25T00:35:02.156Z,98.70
2022-12-25T00:38:40.908Z,98.52
2022-12-25T00:42:20.922Z,98.73
2022-12-25T00:46:02.108Z,98.19
2022-12-25T00:49:51.268Z,97.72
2022-12-25T00:53:32.945Z,97.18
2022-12-25T00:56:55.257Z,97.13
2022-12-25T01:00:51.973Z,97.31
2022-12-25T01:04:14.630Z,97.67
2022-12-25T01:07:52.286Z,97.64
2022-12-25T01:11:31.409Z,97.26
2022-12-25T01:15:10.714Z,97.13
2022-12-25T01:18:46.675Z,96.87
2022-12-25T01:22:23.158Z,97.12
2022-12-25T01:26:22.035Z,97.35
2022-12-25T01:29:46.607Z,97.59
2022-12-25T01:33:42.861Z,97.70
2022-12-25T01:37:05.588Z,98.08
2022-12-25T01:40:42.974Z,97.95
2022-12-25T01:45:00.001Z,97.69
2022-12-25T01:48:30.729Z,97.83
2022-12-25T01:52:10.677Z,97.88
2022-12-25T01:55:38.742Z,98.02
2022-12-25T01:59:34.251Z,97.97
2022-12-25T02:02:57.532Z,98.22
2022-12-25T02:06:35.288Z,98.43
2022-12-25T02:10:13.029Z,98.63
2022-12-25T02:13:49.771Z,98.47
2022-12-25T02:18:09.450Z,98.25
2022-12-25T02:22:01.079Z,98.33
2022-12-25T02:26:07.496Z,98.24
2022-12-25T02:29:53.445Z,98.08
2022-12-25T02:34:02.394Z,98.54
2022-12-25T02:37:55.987Z,98.57
2022-12-25T02:41:43.216Z,98.35
2022-12-25T02:45:25.337Z,98.37
2022-12-25T02:49:33.729Z,98.21
2022-12-25T02:53:34.485Z,98.21
2022-12-25T02:57:18.814Z,98.19
2022-12-25T03:01:30.337Z,98.41
2022-12-25T03:05:13.843Z,98.28
2022-12-25T03:08:41.834Z,98.45
2022-12-25T03:12:49.642Z,98.35
2022-12-25T03:16:31.171Z,98.18
2022-12-25T03:20:12.927Z,98.33
2022-12-25T03:24:18.932Z,98.16
2022-12-25T03:27:43.100Z,97.88
2022-12-25T03:31:21.843Z,97.83
2022-12-25T03:35:23.975Z,97.92
2022-12-25T03:39:20.823Z,97.75
2022-12-25T03:43:12.881Z,97.84
2022-12-25T03:47:07.472Z,98.02
2022-12-25T03:51:02.108Z,98.18
2022-12-25T03:54:46.946Z,98.04
2022-12-25T03:58:47.254Z,98.22
2022-12-25T04:02:28.883Z,98.51
2022-12-25T04:06:10.338Z,98.42
2022-12-25T04:09:52.174Z,98.38
2022-12-25T04:13:34.890Z,98.18
2022-12-25T04:17:17.193Z,97.89
2022-12-25T04:20:58.421Z,97.96
2022-12-25T04:24:40.030Z,98.01
2022-12-25T04:28:40.381Z,98.26
2022-12-25T04:32:21.502Z,98.33
2022-12-25T04:36:07.628Z,98.11
2022-12-25T04:39:49.396Z,98.03
2022-12-25T04:43:30.168Z,97.88
2022-12-25T04:47:12.759Z,98.11
2022-12-25T04:50:34.840Z,98.22
2022-12-25T04:54:13.703Z,98.61
2022-12-25T04:58:09.629Z,98.50
2022-12-25T05:01:51.072Z,98.47
2022-12-25T05:05:13.632Z,98.65
2022-12-25T05:09:10.224Z,98.60
2022-12-25T05:12:32.002Z,98.86
2022-12-25T05:16:14.022Z,99.14
2022-12-25T05:19:47.387Z,99.32
2022-12-25T05:23:25.146Z,99.15
2022-12-25T05:27:21.741Z,98.88
2022-12-25T05:31:03.137Z,98.61
2022-12-25T05:34:25.281Z,98.88
2022-12-25T05:38:21.978Z,98.84
2022-12-25T05:41:44.644Z,98.81
2022-12-25T05:45:23.293Z,98.68
2022-12-25T05:48:59.538Z,98.48
2022-12-25T05:52:37.320Z,98.21
2022-12-25T05:56:14.961Z,98.36
2022-12-25T06:00:11.903Z,98.39
2022-12-25T06:03:36.743Z,98.18
2022-12-25T06:07:14.225Z,98.00
2022-12-25T06:11:13.408Z,97.95
2022-12-25T06:14:36.819Z,97.90
2022-12-25T06:18:13.942Z,97.86
2022-12-25T06:22:10.501Z,98.01
2022-12-25T06:25:51.506Z,98.02
2022-12-25T06:29:32.963Z,98.09
2022-12-25T06:33:13.863Z,97.97
2022-12-25T06:49:51.275Z,98.46
2022-12-25T06:53:49.379Z,98.68
2022-12-25T06:57:11.640Z,98.27
2022-12-25T07:00:49.658Z,98.07
2022-12-25T07:04:38.143Z,98.04
2022-12-25T07:08:23.884Z,97.93
2022-12-25T07:11:45.817Z,97.83
2022-12-25T07:15:23.809Z,97.87
2022-12-25T07:19:01.621Z,98.03
2022-12-25T07:22:39.059Z,98.06
2022-12-25T07:26:17.565Z,98.27
2022-12-25T07:29:54.510Z,97.79
2022-12-25T07:33:53.731Z,97.61
2022-12-25T07:37:16.326Z,97.84
2022-12-25T07:41:12.674Z,97.98
2022-12-25T07:44:35.074Z,97.86
2022-12-25T07:48:16.637Z,97.50
2022-12-25T07:51:50.221Z,97.80
2022-12-25T07:55:46.647Z,97.88
2022-12-25T07:59:27.790Z,97.86
2022-12-25T08:02:50.339Z,97.82
2022-12-25T08:06:31.723Z,97.83
2022-12-25T08:10:05.720Z,97.93
2022-12-25T08:13:43.210Z,98.20
2022-12-25T08:17:20.659Z,98.01
2022-12-25T08:48:45.227Z,78.90
2022-12-25T08:54:48.750Z,73.36
2022-12-25T09:00:02.653Z,75.27
2022-12-25T09:03:38.525Z,76.15
2022-12-25T09:07:15.579Z,77.67
2022-12-25T09:10:52.140Z,78.38
2022-12-25T09:14:30.251Z,79.26
2022-12-25T09:18:10.389Z,80.35
2022-12-25T09:21:45.861Z,80.85
2022-12-25T09:25:25.210Z,81.32
2022-12-25T09:29:02.972Z,81.91
2022-12-25T09:32:40.282Z,82.53
2022-12-25T09:36:15.767Z,82.82
2022-12-25T09:39:54.939Z,83.13
2022-12-25T09:43:38.864Z,83.04
2022-12-25T09:47:14.876Z,83.01
2022-12-25T09:50:57.757Z,83.07
2022-12-25T09:54:59.222Z,82.48
2022-12-25T09:58:22.516Z,83.33
2022-12-25T10:02:26.654Z,83.63
2022-12-25T10:06:07.934Z,83.43
2022-12-25T10:09:49.856Z,83.62
2022-12-25T10:13:34.965Z,84.25
2022-12-25T10:17:30.915Z,84.35
2022-12-25T10:20:59.228Z,83.44
2022-12-25T10:24:47.610Z,83.60
2022-12-25T10:28:18.625Z,84.18
2022-12-25T10:31:56.563Z,84.95
2022-12-25T10:35:32.504Z,85.01
2022-12-25T10:39:22.788Z,85.29
2022-12-25T10:43:23.611Z,85.15
2022-12-25T10:46:52.211Z,84.83
2022-12-25T10:50:30.141Z,85.40
2022-12-25T10:54:04.253Z,85.41
2022-12-25T10:58:01.340Z,85.21
2022-12-25T11:01:28.095Z,85.32
2022-12-25T11:05:13.328Z,85.22
2022-12-25T11:09:02.893Z,85.35
2022-12-25T11:12:43.237Z,85.79
2022-12-25T11:16:32.446Z,86.21
2022-12-25T11:20:20.794Z,86.71
2022-12-25T11:23:52.380Z,86.81
2022-12-25T11:27:46.610Z,86.57
2022-12-25T11:31:38.257Z,85.92
2022-12-25T11:35:30.342Z,85.68
2022-12-25T11:38:56.960Z,85.59
2022-12-25T11:43:26.192Z,85.57
2022-12-25T11:46:53.199Z,85.92
2022-12-25T11:50:45.426Z,86.03
2022-12-25T11:54:49.908Z,85.69
2022-12-25T11:58:45.961Z,86.09
2022-12-25T12:02:42.190Z,85.87
2022-12-25T12:06:14.480Z,85.72
2022-12-25T12:09:56.839Z,86.26
2022-12-25T12:14:12.283Z,86.25
2022-12-25T12:17:36.637Z,86.55
2022-12-25T12:21:41.170Z,86.02
2022-12-25T12:25:07.609Z,85.97
2022-12-25T12:29:06.504Z,86.17
2022-12-25T12:32:53.042Z,86.53
2022-12-25T12:36:17.207Z,86.87
2022-12-25T12:40:28.600Z,86.96
2022-12-25T12:44:16.800Z,86.28
2022-12-25T12:47:47.649Z,85.89
2022-12-25T12:51:36.544Z,84.98
2022-12-25T12:55:05.032Z,84.05
2022-12-25T12:58:48.574Z,84.33
2022-12-25T13:03:17.422Z,84.33
2022-12-25T13:06:49.270Z,84.60
2022-12-25T13:10:48.443Z,84.10
2022-12-25T13:14:23.362Z,84.10
2022-12-25T13:17:52.122Z,84.11
2022-12-25T13:21:29.210Z,83.91
2022-12-25T13:25:20.370Z,83.73
2022-12-25T13:28:47.035Z,83.38
2022-12-25T13:32:29.545Z,83.31
2022-12-25T13:36:24.280Z,83.06
2022-12-25T13:40:00.549Z,83.14
2022-12-25T13:43:50.680Z,82.91
2022-12-25T13:47:42.755Z,82.42
2022-12-25T13:51:14.772Z,82.45
2022-12-25T13:55:02.623Z,83.08
2022-12-25T13:58:49.825Z,82.88
2022-12-25T14:02:23.521Z,82.78
2022-12-25T14:06:25.975Z,82.75
2022-12-25T14:10:13.996Z,82.79
2022-12-25T14:14:05.051Z,82.76
2022-12-25T14:17:30.182Z,82.99
2022-12-25T14:21:33.064Z,83.22
2022-12-25T14:25:17.047Z,83.21
2022-12-25T14:29:16.778Z,83.05
2022-12-25T14:32:46.651Z,82.38
2022-12-25T14:36:20.336Z,82.73
2022-12-25T14:40:03.424Z,82.79
2022-12-25T14:43:56.311Z,82.82
2022-12-25T14:47:26.634Z,82.65
2022-12-25T14:51:18.583Z,82.68
2022-12-25T14:55:03.250Z,82.94
2022-12-25T14:59:15.733Z,83.00
2022-12-25T15:03:06.092Z,83.29
2022-12-25T15:06:30.298Z,83.57
2022-12-25T15:10:57.623Z,83.92
2022-12-25T15:14:18.319Z,83.69
2022-12-25T15:18:03.610Z,83.14
2022-12-25T15:21:45.814Z,83.44
2022-12-25T15:25:14.845Z,83.43
2022-12-25T15:29:08.671Z,83.21
2022-12-25T15:32:54.103Z,83.45
2022-12-25T15:36:17.905Z,83.73
2022-12-25T15:40:15.540Z,84.00
2022-12-25T15:43:58.241Z,83.98
2022-12-25T15:47:23.101Z,83.83
2022-12-25T15:51:19.742Z,84.07
2022-12-25T15:54:48.444Z,84.30
2022-12-25T15:58:22.681Z,84.51
2022-12-25T16:02:21.735Z,84.98
2022-12-25T16:06:06.944Z,85.03
2022-12-25T16:09:35.230Z,85.14
2022-12-25T16:13:10.167Z,85.17
2022-12-25T16:16:46.202Z,85.27
2022-12-25T16:20:23.474Z,85.27
2022-12-25T16:24:25.432Z,85.18
2022-12-25T16:27:50.940Z,85.26
2022-12-25T16:31:48.872Z,85.09
2022-12-25T16:35:34.053Z,85.23
2022-12-25T16:39:18.332Z,85.30
2022-12-25T16:43:01.469Z,85.85
2022-12-25T16:46:25.051Z,86.17
2022-12-25T16:50:22.859Z,86.28
2022-12-25T16:54:06.680Z,86.02
2022-12-25T16:57:34.511Z,86.11
2022-12-25T17:01:29.024Z,86.05
2022-12-25T17:05:15.359Z,86.21
2022-12-25T17:08:40.254Z,86.24
2022-12-25T17:12:16.962Z,86.55
2022-12-25T17:15:55.271Z,86.74
2022-12-25T17:19:33.143Z,86.60
2022-12-25T17:23:11.257Z,86.95
2022-12-25T17:26:47.536Z,86.63
2022-12-25T17:30:25.236Z,86.59
2022-12-25T17:34:04.362Z,86.54
2022-12-25T17:37:44.956Z,86.71
2022-12-25T17:41:20.649Z,86.61
2022-12-25T17:44:58.240Z,86.43
2022-12-25T17:48:40.484Z,86.63
2022-12-25T17:52:15.254Z,86.78
2022-12-25T17:56:12.177Z,86.83
2022-12-25T17:59:55.417Z,87.20
2022-12-25T18:03:41.138Z,87.49
2022-12-25T18:07:05.811Z,87.88
2022-12-25T18:10:45.421Z,88.11
2022-12-25T18:14:23.410Z,87.99
2022-12-25T18:18:16.780Z,87.76
2022-12-25T18:21:59.248Z,87.88
2022-12-25T18:25:44.939Z,87.77
2022-12-25T18:29:28.460Z,88.02
2022-12-25T18:32:51.859Z,88.34
2022-12-25T18:36:53.042Z,88.72
2022-12-25T18:40:41.746Z,88.82
2022-12-25T18:44:05.328Z,88.70
2022-12-25T18:47:45.192Z,88.62
2022-12-25T18:51:29.837Z,88.65
2022-12-25T18:55:03.745Z,88.41
2022-12-25T18:58:41.725Z,88.50
2022-12-25T19:02:17.460Z,88.59
2022-12-25T19:06:26.904Z,89.19
2022-12-25T19:10:12.079Z,88.97
2022-12-25T19:13:38.227Z,89.14
2022-12-25T19:17:15.097Z,89.45
2022-12-25T19:21:10.224Z,89.30
2022-12-25T19:24:54.113Z,89.36
2022-12-25T19:28:37.963Z,89.67
2022-12-25T19:32:21.336Z,89.62
2022-12-25T19:36:07.016Z,89.84
2022-12-25T19:39:31.510Z,89.98
2022-12-25T19:43:09.259Z,90.06
2022-12-25T19:47:06.593Z,90.11
2022-12-25T19:50:53.442Z,90.29
2022-12-25T19:54:35.545Z,89.86
2022-12-25T19:58:02.530Z,90.07
2022-12-25T20:01:58.355Z,89.84
2022-12-25T20:05:23.595Z,89.72
2022-12-25T20:09:22.539Z,89.66
2022-12-25T20:12:45.799Z,90.08
2022-12-25T20:16:44.829Z,90.12
2022-12-25T20:20:08.603Z,90.38
2022-12-25T20:23:49.851Z,90.64
2022-12-25T20:27:23.600Z,90.66
2022-12-25T20:31:08.631Z,90.65
2022-12-25T20:34:39.153Z,90.61
2022-12-25T20:38:36.464Z,90.53
2022-12-25T20:42:00.149Z,90.59
2022-12-25T20:45:41.699Z,90.61
2022-12-25T20:49:15.027Z,90.94
2022-12-25T20:52:55.333Z,90.94
2022-12-25T20:56:32.339Z,91.10
2022-12-25T21:00:08.708Z,91.23
2022-12-25T21:03:54.158Z,91.26
2022-12-25T21:07:23.724Z,91.02
2022-12-25T21:11:03.708Z,90.89
2022-12-25T21:14:40.395Z,91.08
2022-12-25T21:18:18.635Z,91.19
2022-12-25T21:21:54.798Z,91.27
2022-12-25T21:25:32.978Z,91.22
2022-12-25T21:29:32.330Z,91.03
2022-12-25T21:33:17.214Z,91.38
2022-12-25T21:36:41.736Z,91.28
2022-12-25T21:40:21.240Z,91.32
2022-12-25T21:43:56.978Z,90.89
2022-12-25T21:47:59.746Z,91.03
2022-12-25T21:51:42.429Z,91.12
2022-12-25T21:55:06.778Z,91.18
2022-12-25T21:59:05.311Z,91.06
2022-12-25T22:02:29.199Z,91.03
2022-12-25T22:09:31.747Z,98.51
2022-12-25T22:13:28.150Z,92.93
2022-12-25T22:17:13.910Z,92.75
2022-12-25T22:20:39.057Z,92.70
2022-12-25T22:24:15.642Z,93.10
2022-12-25T22:27:55.799Z,93.17
2022-12-25T22:31:32.140Z,93.57
2022-12-25T22:35:27.335Z,93.94
2022-12-25T22:38:51.768Z,94.25
2022-12-25T22:42:47.848Z,94.56
2022-12-25T22:46:12.827Z,94.62
2022-12-25T22:50:11.807Z,94.98
2022-12-25T22:53:58.757Z,95.11
2022-12-25T22:57:25.614Z,94.97
2022-12-25T23:01:22.249Z,94.76
2022-12-25T23:05:06.987Z,94.76
2022-12-25T23:08:49.703Z,94.73
2022-12-25T23:12:32.772Z,94.40
2022-12-25T23:15:59.350Z,94.47
2022-12-25T23:19:53.349Z,94.63
2022-12-25T23:23:36.906Z,94.58
2022-12-25T23:27:01.861Z,94.49
2022-12-25T23:30:38.423Z,94.10
2022-12-25T23:34:41.082Z,93.92
2022-12-25T23:38:23.591Z,93.83
2022-12-25T23:41:48.463Z,93.96
2022-12-25T23:45:45.557Z,93.97
2022-12-25T23:49:09.955Z,94.07
2022-12-25T23:52:50.649Z,94.25
2022-12-25T23:56:25.624Z,94.15
